Time;durP1;ratioP1;P1;durP2;ratioP2;P2;SDS_P1;SDS_P2;PMS_P1;PMS_P2;Temp;Humidity;BMP_temperature;BMP_pressure;BME280_temperature;BME280_humidity;BME280_pressure;Samples;Min_cycle;Max_cycle;Signal;HPM_P1;HPM_P2
2023/08/22 00:00:26;;;;;;;9.90;4.60;;;;;;;;;;5051702;28;20501;-69
2023/08/22 00:02:52;;;;;;;5.50;4.27;;;;;;;;;;5052932;28;20414;-68
2023/08/22 00:05:18;;;;;;;8.23;5.10;;;;;;;;;;5053098;28;20429;-69
2023/08/22 00:07:44;;;;;;;5.13;4.83;;;;;;;;;;5049951;28;20433;-69
2023/08/22 00:10:10;;;;;;;5.53;5.20;;;;;;;;;;5052970;28;20917;-69
2023/08/22 00:12:37;;;;;;;5.00;4.70;;;;;;;;;;5050411;28;20953;-69
2023/08/22 00:15:05;;;;;;;5.67;4.37;;;;;;;;;;5052396;28;20485;-69
2023/08/22 00:17:31;;;;;;;4.53;4.23;;;;;;;;;;5048381;28;20434;-69
2023/08/22 00:19:57;;;;;;;6.43;4.33;;;;;;;;;;5052768;28;20425;-69
2023/08/22 00:22:23;;;;;;;6.63;4.57;;;;;;;;;;5052386;28;20988;-69
2023/08/22 00:24:49;;;;;;;9.70;4.60;;;;;;;;;;5052576;28;20426;-69
2023/08/22 00:27:15;;;;;;;9.60;4.10;;;;;;;;;;5052227;28;20215;-70
2023/08/22 00:29:41;;;;;;;5.50;5.10;;;;;;;;;;5049039;28;20230;-69
2023/08/22 00:32:07;;;;;;;4.53;4.20;;;;;;;;;;5051032;28;20493;-69
2023/08/22 00:34:33;;;;;;;5.47;4.93;;;;;;;;;;5050530;28;20892;-70
2023/08/22 00:36:59;;;;;;;4.83;4.07;;;;;;;;;;5050574;28;20456;-69
2023/08/22 00:39:25;;;;;;;5.60;5.10;;;;;;;;;;5052520;28;20508;-68
2023/08/22 00:41:51;;;;;;;7.07;5.23;;;;;;;;;;5051204;28;20422;-69
2023/08/22 00:44:17;;;;;;;12.03;4.63;;;;;;;;;;5049678;28;20545;-70
2023/08/22 00:46:43;;;;;;;5.20;4.90;;;;;;;;;;5051879;28;20994;-69
2023/08/22 00:49:09;;;;;;;5.33;4.87;;;;;;;;;;5050559;28;20935;-69
2023/08/22 00:51:39;;;;;;;4.93;4.60;;;;;;;;;;5050760;28;20434;-69
2023/08/22 00:54:06;;;;;;;5.10;4.63;;;;;;;;;;5049174;28;20553;-69
2023/08/22 00:56:32;;;;;;;4.83;4.53;;;;;;;;;;5045086;28;20434;-70
2023/08/22 00:58:59;;;;;;;7.17;5.20;;;;;;;;;;5045913;28;20439;-69
2023/08/22 01:01:25;;;;;;;5.70;5.20;;;;;;;;;;5052015;28;20415;-68
2023/08/22 01:03:51;;;;;;;4.87;4.50;;;;;;;;;;5046584;28;20801;-70
2023/08/22 01:06:26;;;;;;;4.70;4.50;;;;;;;;;;5046149;28;21785;-69
2023/08/22 01:08:55;;;;;;;4.57;4.40;;;;;;;;;;5046089;28;20293;-69
2023/08/22 01:11:42;;;;;;;5.57;5.13;;;;;;;;;;5050385;28;20430;-69
2023/08/22 01:14:10;;;;;;;5.00;4.70;;;;;;;;;;5051023;28;21040;-69
2023/08/22 01:16:37;;;;;;;6.43;4.40;;;;;;;;;;5047554;28;20458;-68
2023/08/22 01:19:04;;;;;;;5.10;4.60;;;;;;;;;;5051616;28;20434;-69
2023/08/22 01:21:34;;;;;;;9.00;4.97;;;;;;;;;;5051568;28;20438;-69
2023/08/22 01:23:59;;;;;;;4.10;3.90;;;;;;;;;;5050474;28;20517;-69
2023/08/22 01:26:26;;;;;;;5.17;4.77;;;;;;;;;;5048764;28;21072;-70
2023/08/22 01:28:55;;;;;;;5.63;5.23;;;;;;;;;;5050690;28;20191;-70
2023/08/22 01:31:24;;;;;;;13.80;4.93;;;;;;;;;;5051386;28;20435;-69
2023/08/22 01:33:53;;;;;;;4.13;3.83;;;;;;;;;;5050985;28;20484;-69
2023/08/22 01:36:20;;;;;;;3.80;3.40;;;;;;;;;;5048345;28;20438;-69
2023/08/22 01:38:46;;;;;;;3.03;2.93;;;;;;;;;;5049609;28;20460;-69
2023/08/22 01:41:13;;;;;;;12.70;5.00;;;;;;;;;;5051277;28;20419;-69
2023/08/22 01:43:39;;;;;;;4.60;4.33;;;;;;;;;;5050732;28;20414;-69
2023/08/22 01:46:07;;;;;;;5.13;4.83;;;;;;;;;;5049825;28;20529;-69
2023/08/22 01:48:32;;;;;;;5.67;4.80;;;;;;;;;;5050865;28;20514;-69
2023/08/22 01:50:58;;;;;;;5.93;4.30;;;;;;;;;;5051166;28;20513;-69
2023/08/22 01:53:25;;;;;;;6.47;5.00;;;;;;;;;;5048073;28;20841;-70
2023/08/22 01:55:51;;;;;;;5.13;4.73;;;;;;;;;;5049211;28;20477;-68
2023/08/22 01:58:17;;;;;;;4.10;4.00;;;;;;;;;;5050475;28;20800;-69
2023/08/22 02:00:43;;;;;;;6.40;5.53;;;;;;;;;;5050009;28;20434;-69
2023/08/22 02:03:09;;;;;;;4.93;4.63;;;;;;;;;;5047176;28;20441;-69
2023/08/22 02:05:34;;;;;;;4.50;4.20;;;;;;;;;;5049579;28;20500;-70
2023/08/22 02:08:01;;;;;;;6.73;4.67;;;;;;;;;;5050110;28;20434;-69
2023/08/22 02:10:27;;;;;;;4.87;4.50;;;;;;;;;;5050744;28;20245;-69
2023/08/22 02:12:53;;;;;;;9.40;4.63;;;;;;;;;;5049823;28;20926;-69
2023/08/22 02:15:20;;;;;;;5.93;5.03;;;;;;;;;;5049790;28;20516;-69
2023/08/22 02:17:46;;;;;;;4.23;4.07;;;;;;;;;;5050151;28;20410;-70
2023/08/22 02:20:12;;;;;;;4.93;4.63;;;;;;;;;;5049064;28;20500;-69
2023/08/22 02:22:39;;;;;;;4.30;4.13;;;;;;;;;;5049629;28;20414;-69
2023/08/22 02:25:06;;;;;;;4.80;4.47;;;;;;;;;;5049976;28;20513;-68
2023/08/22 02:27:32;;;;;;;4.53;4.43;;;;;;;;;;5049912;28;20415;-69
2023/08/22 02:29:58;;;;;;;4.60;4.50;;;;;;;;;;5049879;28;20937;-69
2023/08/22 02:32:24;;;;;;;14.53;4.70;;;;;;;;;;5049616;28;20439;-69
2023/08/22 02:34:50;;;;;;;5.33;4.83;;;;;;;;;;5048032;28;20517;-69
2023/08/22 02:37:16;;;;;;;4.70;4.40;;;;;;;;;;5047552;28;20431;-69
2023/08/22 02:39:42;;;;;;;5.07;4.87;;;;;;;;;;5050231;28;20414;-69
2023/08/22 02:42:08;;;;;;;5.87;4.33;;;;;;;;;;5050089;28;20942;-70
2023/08/22 02:44:34;;;;;;;4.80;4.30;;;;;;;;;;5045458;28;20427;-69
2023/08/22 02:47:00;;;;;;;4.90;4.70;;;;;;;;;;5049510;28;20176;-69
2023/08/22 02:49:26;;;;;;;6.70;5.20;;;;;;;;;;5049956;28;20267;-69
2023/08/22 02:51:51;;;;;;;4.93;4.63;;;;;;;;;;5049361;28;20425;-68
2023/08/22 02:54:17;;;;;;;4.47;4.00;;;;;;;;;;5045525;28;20223;-72
2023/08/22 02:56:43;;;;;;;6.80;4.83;;;;;;;;;;5045330;28;20195;-72
2023/08/22 02:59:09;;;;;;;5.10;4.70;;;;;;;;;;5047826;28;20430;-72
2023/08/22 03:01:35;;;;;;;4.80;4.03;;;;;;;;;;5049399;28;20426;-71
2023/08/22 03:04:01;;;;;;;12.10;5.87;;;;;;;;;;5046798;28;20429;-68
2023/08/22 03:06:27;;;;;;;7.30;4.90;;;;;;;;;;5048236;28;20454;-69
2023/08/22 03:08:54;;;;;;;4.87;4.50;;;;;;;;;;5049384;28;20521;-68
2023/08/22 03:11:19;;;;;;;5.30;4.80;;;;;;;;;;5049486;28;20822;-68
2023/08/22 03:13:45;;;;;;;6.20;5.53;;;;;;;;;;5048310;28;20409;-69
2023/08/22 03:16:11;;;;;;;13.07;4.60;;;;;;;;;;5045751;28;20926;-68
2023/08/22 03:18:37;;;;;;;4.47;4.27;;;;;;;;;;5047918;28;20453;-69
2023/08/22 03:21:03;;;;;;;4.60;4.50;;;;;;;;;;5049605;28;20468;-68
2023/08/22 03:23:29;;;;;;;4.77;4.37;;;;;;;;;;5049620;28;20446;-69
2023/08/22 03:25:59;;;;;;;5.30;4.87;;;;;;;;;;5046677;28;20438;-68
2023/08/22 03:28:25;;;;;;;4.57;4.17;;;;;;;;;;5049005;28;20907;-68
2023/08/22 03:30:55;;;;;;;4.43;4.13;;;;;;;;;;5049422;28;20783;-68
2023/08/22 03:33:22;;;;;;;5.67;4.77;;;;;;;;;;5049352;28;20925;-69
2023/08/22 03:35:47;;;;;;;7.27;4.43;;;;;;;;;;5045352;28;20482;-68
2023/08/22 03:38:13;;;;;;;4.80;4.40;;;;;;;;;;5046041;28;20430;-68
2023/08/22 03:40:39;;;;;;;5.77;4.77;;;;;;;;;;5048390;28;20191;-68
2023/08/22 03:43:05;;;;;;;7.30;4.53;;;;;;;;;;5048987;28;20910;-69
2023/08/22 03:45:31;;;;;;;4.90;4.60;;;;;;;;;;5045372;28;20854;-69
2023/08/22 03:48:03;;;;;;;6.23;5.23;;;;;;;;;;5049132;28;20310;-68
2023/08/22 03:50:29;;;;;;;5.40;5.10;;;;;;;;;;5047299;28;20461;-68
2023/08/22 03:52:55;;;;;;;5.03;4.73;;;;;;;;;;5048052;28;20985;-69
2023/08/22 03:55:21;;;;;;;5.07;4.77;;;;;;;;;;5049177;28;20477;-68
2023/08/22 03:57:47;;;;;;;5.30;4.77;;;;;;;;;;5048585;28;20456;-68
2023/08/22 04:00:13;;;;;;;5.27;4.73;;;;;;;;;;5047853;28;20430;-68
2023/08/22 04:02:39;;;;;;;4.77;4.47;;;;;;;;;;5047488;28;20442;-68
2023/08/22 04:05:05;;;;;;;3.97;3.77;;;;;;;;;;5048667;28;20449;-68
2023/08/22 04:07:31;;;;;;;6.87;4.70;;;;;;;;;;5049010;28;20422;-68
2023/08/22 04:09:57;;;;;;;5.23;4.00;;;;;;;;;;5051610;28;20414;-68
2023/08/22 04:12:23;;;;;;;8.33;5.10;;;;;;;;;;5050196;28;20948;-68
2023/08/22 04:14:49;;;;;;;5.60;5.10;;;;;;;;;;5048547;28;20278;-68
2023/08/22 04:17:15;;;;;;;5.50;5.00;;;;;;;;;;5050610;28;20422;-73
2023/08/22 04:19:42;;;;;;;4.20;4.00;;;;;;;;;;5052974;28;20430;-77
2023/08/22 04:22:08;;;;;;;7.87;4.80;;;;;;;;;;5051934;28;20443;-69
2023/08/22 04:24:34;;;;;;;6.27;4.43;;;;;;;;;;5050504;28;20453;-69
2023/08/22 04:27:00;;;;;;;8.33;6.73;;;;;;;;;;5046381;28;20914;-70
2023/08/22 04:29:26;;;;;;;4.27;4.03;;;;;;;;;;5051685;28;20422;-68
2023/08/22 04:31:52;;;;;;;9.60;4.60;;;;;;;;;;5050694;28;20445;-69
2023/08/22 04:34:17;;;;;;;7.10;5.70;;;;;;;;;;5050909;28;21188;-68
2023/08/22 04:36:43;;;;;;;6.70;6.00;;;;;;;;;;5047507;28;20441;-69
2023/08/22 04:39:10;;;;;;;12.53;6.00;;;;;;;;;;5046782;28;20521;-72
2023/08/22 04:41:36;;;;;;;6.27;5.30;;;;;;;;;;5047886;28;20918;-82
2023/08/22 04:44:02;;;;;;;6.10;5.57;;;;;;;;;;5048642;28;20462;-68
2023/08/22 04:46:28;;;;;;;7.80;5.03;;;;;;;;;;5049730;28;20934;-78
2023/08/22 04:48:53;;;;;;;5.60;4.97;;;;;;;;;;5051785;28;20429;-71
2023/08/22 04:51:19;;;;;;;7.63;5.07;;;;;;;;;;5050183;28;20459;-67
2023/08/22 04:53:46;;;;;;;4.40;4.20;;;;;;;;;;5050305;28;20228;-69
2023/08/22 04:56:12;;;;;;;5.70;5.23;;;;;;;;;;5049798;28;20430;-71
2023/08/22 04:58:38;;;;;;;5.83;4.57;;;;;;;;;;5049657;28;20472;-75
2023/08/22 05:01:04;;;;;;;4.83;4.50;;;;;;;;;;5048047;28;20438;-68
2023/08/22 05:03:30;;;;;;;4.60;4.43;;;;;;;;;;5050704;28;20510;-68
2023/08/22 05:05:56;;;;;;;5.20;4.90;;;;;;;;;;5046890;28;20188;-70
2023/08/22 05:08:22;;;;;;;5.17;4.90;;;;;;;;;;5048630;28;20434;-67
2023/08/22 05:10:48;;;;;;;13.37;5.23;;;;;;;;;;5048162;28;20569;-67
2023/08/22 05:13:14;;;;;;;7.37;5.57;;;;;;;;;;5047606;28;20434;-72
2023/08/22 05:15:40;;;;;;;11.73;4.80;;;;;;;;;;5045702;28;20502;-69
2023/08/22 05:18:06;;;;;;;5.20;4.90;;;;;;;;;;5049812;28;20433;-67
2023/08/22 05:20:31;;;;;;;6.30;5.53;;;;;;;;;;5049598;28;20466;-66
2023/08/22 05:22:57;;;;;;;5.90;5.40;;;;;;;;;;5049291;28;20472;-67
2023/08/22 05:25:23;;;;;;;5.93;5.43;;;;;;;;;;5048719;28;20427;-67
2023/08/22 05:27:49;;;;;;;5.07;4.87;;;;;;;;;;5046965;28;20275;-67
2023/08/22 05:30:15;;;;;;;6.73;5.97;;;;;;;;;;5050527;28;20445;-70
2023/08/22 05:32:41;;;;;;;6.10;4.30;;;;;;;;;;5047022;28;20436;-67
2023/08/22 05:35:08;;;;;;;10.47;5.50;;;;;;;;;;5049818;28;20516;-68
2023/08/22 05:37:34;;;;;;;6.10;5.53;;;;;;;;;;5048498;28;20457;-68
2023/08/22 05:40:00;;;;;;;5.80;5.57;;;;;;;;;;5047676;28;20438;-67
2023/08/22 05:42:26;;;;;;;6.90;6.03;;;;;;;;;;5047647;28;20183;-70
2023/08/22 05:44:52;;;;;;;14.17;7.27;;;;;;;;;;5047280;28;20430;-68
2023/08/22 05:47:18;;;;;;;7.40;6.70;;;;;;;;;;5048203;28;20457;-70
2023/08/22 05:49:44;;;;;;;8.30;6.60;;;;;;;;;;5047836;28;20438;-67
2023/08/22 05:52:10;;;;;;;6.23;5.83;;;;;;;;;;5049484;28;20482;-67
2023/08/22 05:54:36;;;;;;;6.20;5.90;;;;;;;;;;5048818;28;20506;-67
2023/08/22 05:57:02;;;;;;;7.53;6.83;;;;;;;;;;5048872;28;20450;-67
2023/08/22 05:59:29;;;;;;;6.70;6.30;;;;;;;;;;5050022;28;20410;-66
2023/08/22 06:01:55;;;;;;;6.73;6.00;;;;;;;;;;5045244;28;20453;-68
2023/08/22 06:04:21;;;;;;;6.80;6.27;;;;;;;;;;5050105;28;20966;-66
2023/08/22 06:06:47;;;;;;;7.10;5.90;;;;;;;;;;5046801;28;20929;-74
2023/08/22 06:09:13;;;;;;;7.43;6.37;;;;;;;;;;5047874;28;20547;-66
2023/08/22 06:11:39;;;;;;;7.17;6.50;;;;;;;;;;5048709;28;20457;-67
2023/08/22 06:14:05;;;;;;;8.53;7.33;;;;;;;;;;5044045;28;20212;-66
2023/08/22 06:16:31;;;;;;;8.77;8.17;;;;;;;;;;5040177;28;20597;-66
2023/08/22 06:18:57;;;;;;;9.07;7.00;;;;;;;;;;5049883;28;20835;-66
2023/08/22 06:21:23;;;;;;;7.03;6.43;;;;;;;;;;5049110;28;20430;-66
2023/08/22 06:23:49;;;;;;;10.20;7.40;;;;;;;;;;5045996;28;20446;-66
2023/08/22 06:26:16;;;;;;;10.40;7.37;;;;;;;;;;5047333;28;20817;-69
2023/08/22 06:28:41;;;;;;;7.10;5.53;;;;;;;;;;5047205;28;21006;-67
2023/08/22 06:31:07;;;;;;;6.87;6.47;;;;;;;;;;5040201;28;20851;-66
2023/08/22 06:33:34;;;;;;;8.67;6.53;;;;;;;;;;5043684;28;21147;-69
2023/08/22 06:36:00;;;;;;;6.90;6.53;;;;;;;;;;5047378;28;20485;-66
2023/08/22 06:38:26;;;;;;;14.27;6.60;;;;;;;;;;5047824;28;20434;-70
2023/08/22 06:40:51;;;;;;;7.90;6.23;;;;;;;;;;5046508;28;20438;-70
2023/08/22 06:43:18;;;;;;;7.77;7.00;;;;;;;;;;5045321;28;20497;-69
2023/08/22 06:45:44;;;;;;;15.43;8.10;;;;;;;;;;5049853;28;20437;-68
2023/08/22 06:48:10;;;;;;;7.50;6.77;;;;;;;;;;5044632;28;20442;-69
2023/08/22 06:50:36;;;;;;;7.00;6.40;;;;;;;;;;5046660;28;20503;-68
2023/08/22 06:53:02;;;;;;;8.87;6.93;;;;;;;;;;5041574;28;20499;-70
2023/08/22 06:55:28;;;;;;;8.03;6.73;;;;;;;;;;5043777;28;20986;-69
2023/08/22 06:57:54;;;;;;;7.67;6.50;;;;;;;;;;5047908;28;20518;-70
2023/08/22 07:00:21;;;;;;;5.93;5.37;;;;;;;;;;5047169;28;20253;-69
2023/08/22 07:02:47;;;;;;;6.87;6.27;;;;;;;;;;5047090;28;20447;-70
2023/08/22 07:05:13;;;;;;;8.10;6.27;;;;;;;;;;5045557;28;20533;-69
2023/08/22 07:07:41;;;;;;;6.23;5.87;;;;;;;;;;5048086;28;20434;-69
2023/08/22 07:10:08;;;;;;;5.73;5.30;;;;;;;;;;5045650;28;20484;-70
2023/08/22 07:12:36;;;;;;;6.17;5.47;;;;;;;;;;5041274;28;20442;-68
2023/08/22 07:15:06;;;;;;;6.67;6.03;;;;;;;;;;5043229;28;20489;-70
2023/08/22 07:17:32;;;;;;;6.77;6.23;;;;;;;;;;5042271;28;20431;-70
2023/08/22 07:19:58;;;;;;;12.77;5.80;;;;;;;;;;5043649;28;20503;-69
2023/08/22 07:22:24;;;;;;;11.70;4.90;;;;;;;;;;5043824;28;20426;-70
2023/08/22 07:24:50;;;;;;;8.13;5.97;;;;;;;;;;5048808;28;20428;-70
2023/08/22 07:27:16;;;;;;;5.60;5.03;;;;;;;;;;5048534;28;20851;-68
2023/08/22 07:29:42;;;;;;;5.67;5.37;;;;;;;;;;5042907;28;20507;-69
2023/08/22 07:32:08;;;;;;;5.50;5.20;;;;;;;;;;5042572;28;20446;-71
2023/08/22 07:34:34;;;;;;;14.63;5.67;;;;;;;;;;5046494;28;20493;-72
2023/08/22 07:37:00;;;;;;;10.20;4.93;;;;;;;;;;5043776;28;20430;-71
2023/08/22 07:39:30;;;;;;;7.17;5.50;;;;;;;;;;5047469;28;20445;-72
2023/08/22 07:41:56;;;;;;;6.27;5.67;;;;;;;;;;5043787;28;20935;-69
2023/08/22 07:44:23;;;;;;;5.40;5.03;;;;;;;;;;5047967;28;20457;-70
2023/08/22 07:46:50;;;;;;;15.30;5.23;;;;;;;;;;5051113;28;21066;-70
2023/08/22 07:49:16;;;;;;;8.00;5.20;;;;;;;;;;5052196;28;20438;-71
2023/08/22 07:51:42;;;;;;;5.93;5.40;;;;;;;;;;5046181;28;20485;-69
2023/08/22 07:54:08;;;;;;;6.40;5.80;;;;;;;;;;5049729;28;20470;-69
2023/08/22 07:56:35;;;;;;;6.30;5.10;;;;;;;;;;5048104;28;20465;-69
2023/08/22 07:59:01;;;;;;;5.27;4.97;;;;;;;;;;5049367;28;20427;-70
2023/08/22 08:01:27;;;;;;;7.83;5.30;;;;;;;;;;5046291;28;20890;-71
2023/08/22 08:03:55;;;;;;;5.57;4.87;;;;;;;;;;5049400;28;20944;-71
2023/08/22 08:06:21;;;;;;;4.83;4.63;;;;;;;;;;5045480;28;20827;-69
2023/08/22 08:08:46;;;;;;;10.80;4.93;;;;;;;;;;5052471;28;20422;-69
2023/08/22 08:11:12;;;;;;;6.23;5.00;;;;;;;;;;5050461;28;20651;-69
2023/08/22 08:13:38;;;;;;;5.20;4.70;;;;;;;;;;5049113;28;20839;-69
2023/08/22 08:16:04;;;;;;;6.60;4.20;;;;;;;;;;5049251;28;20486;-70
2023/08/22 08:18:30;;;;;;;4.60;4.13;;;;;;;;;;5051479;28;20436;-69
2023/08/22 08:20:56;;;;;;;4.80;4.50;;;;;;;;;;5045801;28;20453;-69
2023/08/22 08:23:22;;;;;;;4.33;3.80;;;;;;;;;;5051135;28;20430;-69
2023/08/22 08:25:48;;;;;;;4.67;4.27;;;;;;;;;;5049810;28;20438;-70
2023/08/22 08:28:14;;;;;;;4.13;3.83;;;;;;;;;;5048890;28;20918;-65
2023/08/22 08:30:40;;;;;;;4.27;4.07;;;;;;;;;;5050556;28;20492;-66
2023/08/22 08:33:07;;;;;;;4.80;4.17;;;;;;;;;;5050886;28;20529;-65
2023/08/22 08:35:33;;;;;;;4.43;3.60;;;;;;;;;;5050286;28;20482;-67
2023/08/22 08:37:59;;;;;;;4.70;4.30;;;;;;;;;;5049826;28;20457;-65
2023/08/22 08:40:27;;;;;;;10.30;4.60;;;;;;;;;;5048585;28;20434;-64
2023/08/22 08:42:53;;;;;;;3.10;3.10;;;;;;;;;;5051810;28;20417;-65
2023/08/22 08:45:19;;;;;;;4.40;4.10;;;;;;;;;;5049465;28;20438;-65
2023/08/22 08:47:45;;;;;;;4.47;4.07;;;;;;;;;;5051754;28;20418;-66
2023/08/22 08:50:11;;;;;;;3.93;3.73;;;;;;;;;;5047328;28;20442;-65
2023/08/22 08:52:37;;;;;;;4.63;4.23;;;;;;;;;;5051874;28;20465;-66
2023/08/22 08:55:04;;;;;;;5.67;4.20;;;;;;;;;;5048224;28;20517;-65
2023/08/22 08:57:32;;;;;;;4.43;4.20;;;;;;;;;;5048548;28;20525;-65
2023/08/22 08:59:58;;;;;;;11.03;3.67;;;;;;;;;;5042126;28;20442;-65
2023/08/22 09:02:24;;;;;;;4.90;4.50;;;;;;;;;;5049401;28;20422;-67
2023/08/22 09:04:50;;;;;;;5.07;4.80;;;;;;;;;;5050366;28;20458;-68
2023/08/22 09:07:18;;;;;;;4.50;4.40;;;;;;;;;;5048568;28;20446;-65
2023/08/22 09:09:44;;;;;;;5.10;4.80;;;;;;;;;;5048740;28;20434;-66
2023/08/22 09:12:19;;;;;;;6.93;4.20;;;;;;;;;;5051351;28;20769;-66
2023/08/22 09:14:45;;;;;;;6.63;4.53;;;;;;;;;;5051188;28;20468;-65
2023/08/22 09:17:18;;;;;;;5.10;4.70;;;;;;;;;;5033819;28;20431;-65
2023/08/22 09:19:44;;;;;;;4.53;4.30;;;;;;;;;;5045550;28;20437;-65
2023/08/22 09:22:14;;;;;;;5.03;3.97;;;;;;;;;;5048787;28;21184;-66
2023/08/22 09:24:50;;;;;;;4.97;4.57;;;;;;;;;;5047802;28;20472;-66
2023/08/22 09:27:16;;;;;;;4.53;4.43;;;;;;;;;;5046397;28;20422;-65
2023/08/22 09:29:43;;;;;;;6.33;4.77;;;;;;;;;;5050257;28;20427;-67
2023/08/22 09:32:09;;;;;;;13.73;4.73;;;;;;;;;;5050713;28;20807;-68
2023/08/22 09:34:35;;;;;;;3.73;3.43;;;;;;;;;;5049012;28;20490;-66
2023/08/22 09:37:02;;;;;;;4.13;3.80;;;;;;;;;;5050910;28;20442;-68
2023/08/22 09:39:30;;;;;;;4.50;4.30;;;;;;;;;;5051442;28;20690;-66
2023/08/22 09:41:57;;;;;;;4.87;4.20;;;;;;;;;;5050107;28;20436;-66
2023/08/22 09:44:24;;;;;;;4.30;4.00;;;;;;;;;;5049049;28;20430;-67
2023/08/22 09:46:51;;;;;;;4.30;4.10;;;;;;;;;;5048436;28;20525;-66
2023/08/22 09:49:17;;;;;;;7.30;4.40;;;;;;;;;;5047333;28;20436;-65
2023/08/22 09:51:44;;;;;;;6.10;4.30;;;;;;;;;;5048517;28;20783;-66
2023/08/22 09:54:10;;;;;;;14.37;4.30;;;;;;;;;;5049265;28;20872;-66
2023/08/22 09:56:37;;;;;;;3.63;3.43;;;;;;;;;;5047204;28;20529;-66
2023/08/22 09:59:03;;;;;;;4.43;4.33;;;;;;;;;;5050452;28;20502;-66
2023/08/22 10:01:30;;;;;;;9.00;4.47;;;;;;;;;;5050895;28;20472;-66
2023/08/22 10:03:56;;;;;;;4.70;3.97;;;;;;;;;;5049546;28;20453;-66
2023/08/22 10:06:28;;;;;;;3.73;3.60;;;;;;;;;;5041317;28;20529;-66
2023/08/22 10:08:54;;;;;;;4.23;4.00;;;;;;;;;;5046485;28;20437;-65
2023/08/22 10:11:21;;;;;;;5.17;3.37;;;;;;;;;;5047485;28;20442;-64
2023/08/22 10:13:47;;;;;;;3.70;3.60;;;;;;;;;;5045770;28;20437;-66
2023/08/22 10:16:14;;;;;;;3.27;3.17;;;;;;;;;;5048277;28;20806;-65
2023/08/22 10:18:40;;;;;;;4.40;4.00;;;;;;;;;;5044777;28;20439;-65
2023/08/22 10:21:06;;;;;;;3.73;3.60;;;;;;;;;;5047655;28;20442;-70
2023/08/22 10:23:51;;;;;;;3.73;3.43;;;;;;;;;;5049352;28;20833;-71
2023/08/22 10:26:17;;;;;;;3.93;3.83;;;;;;;;;;5048361;28;20418;-69
2023/08/22 10:28:43;;;;;;;6.00;4.17;;;;;;;;;;5049455;28;20774;-71
2023/08/22 10:31:11;;;;;;;17.67;4.30;;;;;;;;;;5049595;28;20461;-71
2023/08/22 10:33:37;;;;;;;3.60;3.40;;;;;;;;;;5044532;28;20473;-71
2023/08/22 10:36:03;;;;;;;4.97;4.50;;;;;;;;;;5041362;28;20993;-70
2023/08/22 10:38:29;;;;;;;3.87;3.77;;;;;;;;;;5038565;28;20966;-70
2023/08/22 10:40:55;;;;;;;3.13;3.03;;;;;;;;;;5044477;28;20465;-70
2023/08/22 10:43:36;;;;;;;3.33;3.20;;;;;;;;;;5043085;28;20509;-69
2023/08/22 10:46:02;;;;;;;3.80;3.50;;;;;;;;;;5045850;28;20469;-69
2023/08/22 10:48:28;;;;;;;4.03;3.83;;;;;;;;;;5043295;28;20947;-70
2023/08/22 10:51:05;;;;;;;7.60;3.83;;;;;;;;;;5037845;28;20466;-69
2023/08/22 10:53:41;;;;;;;4.60;4.20;;;;;;;;;;5043657;28;20504;-70
2023/08/22 10:56:17;;;;;;;4.60;4.20;;;;;;;;;;5043650;28;20861;-69
2023/08/22 10:58:43;;;;;;;8.97;4.40;;;;;;;;;;5042238;28;20422;-70
2023/08/22 11:01:11;;;;;;;4.90;4.47;;;;;;;;;;5044171;28;20438;-70
2023/08/22 11:03:37;;;;;;;7.47;4.30;;;;;;;;;;5048157;28;20787;-70
2023/08/22 11:06:10;;;;;;;3.10;3.10;;;;;;;;;;5049063;28;20488;-70
2023/08/22 11:08:37;;;;;;;4.10;3.80;;;;;;;;;;5046826;28;20495;-69
2023/08/22 11:11:04;;;;;;;3.40;3.20;;;;;;;;;;5049643;28;20922;-70
2023/08/22 11:13:39;;;;;;;3.87;3.67;;;;;;;;;;5048664;28;20460;-69
2023/08/22 11:16:13;;;;;;;11.23;5.17;;;;;;;;;;5048447;28;20485;-69
2023/08/22 11:18:39;;;;;;;9.83;3.60;;;;;;;;;;5047814;28;20425;-70
2023/08/22 11:21:06;;;;;;;9.13;3.87;;;;;;;;;;5049708;28;20450;-70
2023/08/22 11:23:32;;;;;;;3.47;3.37;;;;;;;;;;5049620;28;20922;-69
2023/08/22 11:26:00;;;;;;;4.40;4.10;;;;;;;;;;5047961;28;20501;-69
2023/08/22 11:28:33;;;;;;;3.97;3.70;;;;;;;;;;5048990;28;20442;-69
2023/08/22 11:30:59;;;;;;;11.37;3.67;;;;;;;;;;5049938;28;20418;-69
2023/08/22 11:33:25;;;;;;;4.80;3.43;;;;;;;;;;5044323;28;20954;-70
2023/08/22 11:35:52;;;;;;;6.57;4.40;;;;;;;;;;5046200;28;20499;-70
2023/08/22 11:38:19;;;;;;;4.83;3.10;;;;;;;;;;5045971;28;20427;-69
2023/08/22 11:40:44;;;;;;;5.03;4.37;;;;;;;;;;5043119;28;20554;-70
2023/08/22 11:43:11;;;;;;;7.33;4.00;;;;;;;;;;5043434;28;20509;-71
2023/08/22 11:45:46;;;;;;;3.83;3.53;;;;;;;;;;5048326;28;20411;-69
2023/08/22 11:48:18;;;;;;;6.73;3.30;;;;;;;;;;5044060;28;20433;-69
2023/08/22 11:50:45;;;;;;;3.90;3.70;;;;;;;;;;5047146;28;20529;-69
2023/08/22 11:53:12;;;;;;;7.70;4.93;;;;;;;;;;5047446;28;20974;-70
2023/08/22 11:55:40;;;;;;;3.50;3.40;;;;;;;;;;5046929;28;20485;-69
2023/08/22 11:58:06;;;;;;;3.93;3.83;;;;;;;;;;5047993;28;20437;-70
2023/08/22 12:00:33;;;;;;;3.40;3.30;;;;;;;;;;5048084;28;20475;-68
2023/08/22 12:03:01;;;;;;;3.57;3.37;;;;;;;;;;5049103;28;20426;-69
2023/08/22 12:05:38;;;;;;;4.73;2.80;;;;;;;;;;5048338;28;20449;-68
2023/08/22 12:08:07;;;;;;;3.37;3.27;;;;;;;;;;5046002;28;20436;-70
2023/08/22 12:10:43;;;;;;;3.50;3.30;;;;;;;;;;5045428;28;20429;-70
2023/08/22 12:13:09;;;;;;;4.63;3.73;;;;;;;;;;5048253;28;20907;-69
2023/08/22 12:15:35;;;;;;;4.37;3.67;;;;;;;;;;5047644;28;20498;-69
2023/08/22 12:18:02;;;;;;;5.33;3.00;;;;;;;;;;5046986;28;20427;-69
2023/08/22 12:20:28;;;;;;;3.40;3.20;;;;;;;;;;5047742;28;20426;-70
2023/08/22 12:22:54;;;;;;;8.03;3.90;;;;;;;;;;5048220;28;20890;-69
2023/08/22 12:25:20;;;;;;;4.30;3.90;;;;;;;;;;5047215;28;20445;-71
2023/08/22 12:27:46;;;;;;;3.17;3.07;;;;;;;;;;5048122;28;20476;-70
2023/08/22 12:30:13;;;;;;;3.67;3.57;;;;;;;;;;5048086;28;20948;-70
2023/08/22 12:32:42;;;;;;;4.63;4.20;;;;;;;;;;5051097;28;20419;-70
2023/08/22 12:35:10;;;;;;;3.47;3.37;;;;;;;;;;5049564;28;20839;-70
2023/08/22 12:37:36;;;;;;;4.03;3.73;;;;;;;;;;5052130;28;20794;-69
2023/08/22 12:40:03;;;;;;;6.23;3.03;;;;;;;;;;5044709;28;20439;-70
2023/08/22 12:42:29;;;;;;;18.43;2.93;;;;;;;;;;5047494;28;20443;-69
2023/08/22 12:44:55;;;;;;;5.80;4.10;;;;;;;;;;5050111;28;20430;-70
2023/08/22 12:47:21;;;;;;;3.70;3.60;;;;;;;;;;5051508;28;21008;-69
2023/08/22 12:49:47;;;;;;;4.20;3.70;;;;;;;;;;5050835;28;20426;-69
2023/08/22 12:52:13;;;;;;;3.67;3.57;;;;;;;;;;5051620;28;20462;-69
2023/08/22 12:54:39;;;;;;;3.93;3.77;;;;;;;;;;5051507;28;20504;-69
2023/08/22 12:57:05;;;;;;;4.70;4.43;;;;;;;;;;5050262;28;20187;-69
2023/08/22 12:59:31;;;;;;;3.30;3.20;;;;;;;;;;5047933;28;20719;-69
2023/08/22 13:01:57;;;;;;;3.50;3.50;;;;;;;;;;5049870;28;20529;-69
2023/08/22 13:04:23;;;;;;;6.00;2.97;;;;;;;;;;5051596;28;20499;-70
2023/08/22 13:06:49;;;;;;;20.77;4.77;;;;;;;;;;5049091;28;20484;-69
2023/08/22 13:09:15;;;;;;;3.73;3.57;;;;;;;;;;5051673;28;20898;-70
2023/08/22 13:11:41;;;;;;;3.50;3.40;;;;;;;;;;5049194;28;20430;-69
2023/08/22 13:14:07;;;;;;;6.07;3.33;;;;;;;;;;5050659;28;20241;-69
2023/08/22 13:16:33;;;;;;;4.13;3.73;;;;;;;;;;5047349;28;20434;-69
2023/08/22 13:19:00;;;;;;;12.03;4.40;;;;;;;;;;5032096;28;20992;-69
2023/08/22 13:21:26;;;;;;;5.13;3.70;;;;;;;;;;5049719;28;20484;-69
2023/08/22 13:23:53;;;;;;;3.47;3.37;;;;;;;;;;5050187;28;20466;-69
2023/08/22 13:26:19;;;;;;;4.13;3.83;;;;;;;;;;5046790;28;20430;-69
2023/08/22 13:28:45;;;;;;;3.47;3.27;;;;;;;;;;5051162;28;20441;-70
2023/08/22 13:31:11;;;;;;;12.13;3.57;;;;;;;;;;5048199;28;20445;-70
2023/08/22 13:33:37;;;;;;;5.17;3.60;;;;;;;;;;5047446;28;20442;-69
2023/08/22 13:36:03;;;;;;;4.23;3.93;;;;;;;;;;5049942;28;20474;-69
2023/08/22 13:38:29;;;;;;;4.27;3.97;;;;;;;;;;5051066;28;20418;-69
2023/08/22 13:40:55;;;;;;;3.87;3.67;;;;;;;;;;5049056;28;20517;-69
2023/08/22 13:43:21;;;;;;;6.33;3.93;;;;;;;;;;5047962;28;20456;-70
2023/08/22 13:45:47;;;;;;;6.77;4.00;;;;;;;;;;5042066;28;20215;-68
2023/08/22 13:48:13;;;;;;;3.40;3.20;;;;;;;;;;5045119;28;20434;-71
2023/08/22 13:50:39;;;;;;;8.90;3.80;;;;;;;;;;5047757;28;20454;-63
2023/08/22 13:53:05;;;;;;;17.30;4.83;;;;;;;;;;5049074;28;20513;-64
2023/08/22 13:55:31;;;;;;;4.37;4.00;;;;;;;;;;5047083;28;20727;-65
2023/08/22 13:57:57;;;;;;;4.10;3.23;;;;;;;;;;5047290;28;20438;-73
2023/08/22 14:00:23;;;;;;;4.17;3.70;;;;;;;;;;5046063;28;21429;-69
2023/08/22 14:02:49;;;;;;;3.70;3.60;;;;;;;;;;5046885;28;20426;-71
2023/08/22 14:05:15;;;;;;;3.60;3.50;;;;;;;;;;5047696;28;20526;-63
2023/08/22 14:07:41;;;;;;;4.70;4.50;;;;;;;;;;5048626;28;20468;-63
2023/08/22 14:10:09;;;;;;;4.37;3.60;;;;;;;;;;5046543;28;20852;-62
2023/08/22 14:12:35;;;;;;;4.57;4.20;;;;;;;;;;5049828;28;21487;-62
2023/08/22 14:15:01;;;;;;;4.40;3.20;;;;;;;;;;5047671;28;20848;-62
2023/08/22 14:17:27;;;;;;;4.20;3.80;;;;;;;;;;5048959;28;20532;-63
2023/08/22 14:19:53;;;;;;;6.93;4.00;;;;;;;;;;5048355;28;20335;-62
2023/08/22 14:22:19;;;;;;;4.20;3.80;;;;;;;;;;5047652;28;20428;-62
2023/08/22 14:24:45;;;;;;;4.50;4.07;;;;;;;;;;5048231;28;20430;-62
2023/08/22 14:27:11;;;;;;;5.10;4.60;;;;;;;;;;5048225;28;20426;-63
2023/08/22 14:29:37;;;;;;;5.20;4.77;;;;;;;;;;5049984;28;20458;-62
2023/08/22 14:32:03;;;;;;;5.93;4.43;;;;;;;;;;5047703;28;20430;-63
2023/08/22 14:34:29;;;;;;;3.93;3.73;;;;;;;;;;5049142;28;20930;-64
2023/08/22 14:36:55;;;;;;;4.20;3.90;;;;;;;;;;5049465;28;20419;-63